Time;durP1;ratioP1;P1;durP2;ratioP2;P2;SDS_P1;SDS_P2;PMS_P1;PMS_P2;Temp;Humidity;BMP_temperature;BMP_pressure;BME280_temperature;BME280_humidity;BME280_pressure;Samples;Min_cycle;Max_cycle;Signal;HPM_P1;HPM_P2
2022/08/03 00:01:49;;;;;;;;;4.25;4.00;;;;;27.15;48.25;101317.03;5108990;27;45220;-50
2022/08/03 00:04:16;;;;;;;;;4.75;2.75;;;;;27.10;48.29;101322.16;5112493;27;45493;-48
2022/08/03 00:06:42;;;;;;;;;3.00;3.00;;;;;27.00;48.51;101322.38;5108486;27;45341;-51
2022/08/03 00:09:08;;;;;;;;;3.25;3.00;;;;;26.93;48.72;101329.53;5110349;27;45588;-51
2022/08/03 00:11:34;;;;;;;;;2.75;2.75;;;;;26.88;48.65;101334.69;5109128;27;45388;-50
2022/08/03 00:14:00;;;;;;;;;3.00;3.00;;;;;26.80;49.03;101323.94;5093939;27;45488;-49
2022/08/03 00:16:26;;;;;;;;;3.25;2.75;;;;;26.77;49.03;101330.53;5110048;27;45427;-47
2022/08/03 00:18:52;;;;;;;;;4.00;4.00;;;;;26.73;49.17;101333.81;5110669;27;45432;-48
2022/08/03 00:21:17;;;;;;;;;7.75;3.00;;;;;26.65;49.16;101335.56;5105106;27;45259;-48
2022/08/03 00:23:43;;;;;;;;;3.00;3.00;;;;;26.61;48.94;101330.69;5107372;27;45234;-49
2022/08/03 00:26:08;;;;;;;;;7.00;3.00;;;;;26.59;49.37;101328.16;5112268;27;45325;-48
2022/08/03 00:28:34;;;;;;;;;4.00;3.00;;;;;26.59;49.32;101333.56;5111464;27;45308;-48
2022/08/03 00:31:00;;;;;;;;;4.00;3.00;;;;;26.59;49.47;101333.56;5106996;27;45163;-48
2022/08/03 00:33:25;;;;;;;;;1.50;1.25;;;;;26.59;49.47;101340.84;5109870;27;45264;-47
2022/08/03 00:35:51;;;;;;;;;2.75;2.75;;;;;26.58;49.70;101340.00;5104154;27;46018;-48
2022/08/03 00:38:18;;;;;;;;;4.00;2.75;;;;;26.59;49.46;101333.56;5110455;27;45323;-49
2022/08/03 00:40:44;;;;;;;;;5.00;5.00;;;;;26.58;49.55;101331.06;5107141;27;45434;-49
2022/08/03 00:43:10;;;;;;;;;2.50;2.50;;;;;26.50;49.78;101326.56;5110201;27;45446;-47
2022/08/03 00:45:39;;;;;;;;;2.25;2.25;;;;;26.43;49.73;101328.28;5103571;27;45372;-51
2022/08/03 00:48:06;;;;;;;;;4.75;3.00;;;;;26.35;49.77;101323.75;5109636;27;45152;-51
2022/08/03 00:50:38;;;;;;;;;5.00;3.75;;;;;26.27;49.61;101322.97;5111307;27;45350;-48
2022/08/03 00:53:06;;;;;;;;;3.75;3.75;;;;;26.21;49.67;101319.13;5106668;27;45276;-49
2022/08/03 00:55:32;;;;;;;;;6.25;3.00;;;;;26.17;50.05;101317.81;5105605;27;46004;-49
2022/08/03 00:58:00;;;;;;;;;4.25;3.50;;;;;26.17;49.97;101318.66;5107785;27;45388;-48
2022/08/03 01:00:26;;;;;;;;;3.00;2.50;;;;;26.14;49.68;101315.44;5110946;27;45346;-51
2022/08/03 01:02:52;;;;;;;;;3.25;3.00;;;;;26.08;50.04;101314.31;5110560;27;45353;-46
2022/08/03 01:05:20;;;;;;;;;3.00;3.00;;;;;26.07;49.87;101318.03;5108294;27;46178;-50
2022/08/03 01:08:05;;;;;;;;;5.00;4.00;;;;;26.05;50.12;101311.97;5108448;27;45184;-47
2022/08/03 01:10:57;;;;;;;;;2.25;2.25;;;;;26.02;49.86;101306.94;5104349;27;45333;-46
2022/08/03 01:13:33;;;;;;;;;2.00;2.00;;;;;26.07;50.25;101303.72;5112692;27;45420;-47
2022/08/03 01:15:59;;;;;;;;;2.50;2.00;;;;;26.09;49.93;101299.81;5108570;27;46174;-46
2022/08/03 01:18:30;;;;;;;;;5.75;3.00;;;;;26.13;50.12;101305.66;5107219;27;45417;-50
2022/08/03 01:20:59;;;;;;;;;3.75;3.00;;;;;26.13;50.01;101294.88;5107381;27;45426;-47
2022/08/03 01:23:56;;;;;;;;;7.00;5.00;;;;;26.07;50.04;101293.75;5108019;27;45322;-46
2022/08/03 01:27:01;;;;;;;;;4.25;3.25;;;;;26.07;50.13;101292.91;5109162;27;45348;-47
2022/08/03 01:29:57;;;;;;;;;5.75;3.75;;;;;26.06;50.04;101291.19;5103472;27;45394;-47
2022/08/03 01:32:45;;;;;;;;;3.00;3.00;;;;;26.07;50.21;101295.59;5106860;27;45289;-48
2022/08/03 01:35:16;;;;;;;;;3.00;3.00;;;;;26.07;50.17;101291.03;5093914;27;45488;-48
2022/08/03 01:37:49;;;;;;;;;2.00;2.00;;;;;26.12;50.08;101293.19;5112737;27;45776;-46
2022/08/03 08:30:07;;;;;;;;;5.00;3.00;;;;;28.36;45.89;101251.50;5105495;23;45410;-47
2022/08/03 08:32:33;;;;;;;;;5.75;5.00;;;;;28.40;45.87;101254.63;4918436;28;46475;-47
2022/08/03 08:34:59;;;;;;;;;2.50;2.50;;;;;28.46;45.20;101243.84;4922370;28;46285;-49
2022/08/03 08:37:24;;;;;;;;;6.00;3.50;;;;;28.53;45.29;101242.03;4923427;28;45499;-49
2022/08/03 08:39:50;;;;;;;;;7.75;5.25;;;;;28.59;44.90;101241.22;4924768;28;45523;-47
2022/08/03 08:42:15;;;;;;;;;7.00;6.00;;;;;28.65;45.10;101237.75;4923522;28;45294;-47
2022/08/03 08:44:41;;;;;;;;;5.25;3.50;;;;;28.71;44.98;101235.28;4921874;28;46019;-52
2022/08/03 08:47:07;;;;;;;;;6.75;5.75;;;;;28.78;44.15;101237.00;4922216;28;45457;-52
2022/08/03 08:49:34;;;;;;;;;4.00;4.00;;;;;28.84;44.31;101230.78;4922062;28;45550;-51
2022/08/03 08:52:02;;;;;;;;;3.25;3.25;;;;;28.91;43.94;101233.56;4923094;28;45464;-47
2022/08/03 08:54:31;;;;;;;;;7.00;5.00;;;;;28.96;44.46;101239.22;4921930;28;45416;-48
2022/08/03 08:57:01;;;;;;;;;6.00;4.75;;;;;29.02;43.74;101232.19;4922430;28;45442;-48
2022/08/03 08:59:28;;;;;;;;;7.75;2.50;;;;;29.07;43.42;101235.09;4921116;28;45172;-47
2022/08/03 09:01:57;;;;;;;;;6.00;3.50;;;;;29.11;43.75;101230.97;4922756;28;45384;-46
2022/08/03 09:04:23;;;;;;;;;5.75;5.00;;;;;29.13;43.86;101224.28;4922603;28;45457;-51
2022/08/03 09:06:49;;;;;;;;;5.50;3.50;;;;;29.16;43.80;101225.78;4922095;28;45266;-49
2022/08/03 09:09:16;;;;;;;;;2.50;2.50;;;;;29.21;43.13;101228.72;4922954;28;45377;-49
2022/08/03 09:11:42;;;;;;;;;5.75;4.75;;;;;29.28;43.60;101232.31;4922643;28;45278;-49
2022/08/03 09:14:08;;;;;;;;;5.75;5.00;;;;;29.32;43.44;101230.03;4922680;28;45926;-48
2022/08/03 09:16:34;;;;;;;;;5.25;5.25;;;;;29.35;42.78;101218.78;4922037;28;45187;-50
2022/08/03 09:19:12;;;;;;;;;8.75;3.75;;;;;29.42;43.29;101231.31;4922462;28;45224;-48
2022/08/03 09:21:39;;;;;;;;;3.25;3.25;;;;;29.50;43.06;101213.22;4920816;28;45406;-50
2022/08/03 09:24:05;;;;;;;;;4.75;4.00;;;;;29.56;43.04;101226.00;4922498;28;45373;-47
2022/08/03 09:26:33;;;;;;;;;6.00;6.00;;;;;29.61;42.52;101218.03;4919738;28;45380;-51
2022/08/03 09:29:10;;;;;;;;;3.00;3.00;;;;;29.68;42.09;101221.63;4922356;28;45377;-51
2022/08/03 09:31:43;;;;;;;;;4.00;2.00;;;;;29.75;42.11;101217.03;4920410;28;45438;-53
2022/08/03 09:34:10;;;;;;;;;7.00;4.25;;;;;29.81;41.76;101220.84;4922315;28;46211;-49
2022/08/03 09:36:47;;;;;;;;;6.50;4.00;;;;;29.88;42.04;101224.41;4922008;28;45277;-48
2022/08/03 09:39:18;;;;;;;;;2.50;1.75;;;;;29.94;42.34;101216.28;4922283;28;45477;-50
2022/08/03 09:41:47;;;;;;;;;2.50;2.00;;;;;30.02;41.53;101217.94;4922609;28;45612;-50
2022/08/03 09:44:14;;;;;;;;;7.00;3.00;;;;;30.10;41.85;101220.50;4919854;28;45497;-51
2022/08/03 09:46:55;;;;;;;;;4.50;3.50;;;;;30.18;41.36;101214.03;4921475;28;45505;-51
2022/08/03 09:49:21;;;;;;;;;3.00;3.00;;;;;30.23;41.70;101212.34;4920900;28;45356;-52
2022/08/03 09:51:47;;;;;;;;;4.50;3.00;;;;;30.28;40.94;101212.56;4922488;28;45359;-52
2022/08/03 09:54:25;;;;;;;;;2.00;2.00;;;;;30.35;40.70;101206.28;4919627;28;45599;-51
2022/08/03 09:56:51;;;;;;;;;6.50;5.00;;;;;30.40;40.65;101201.03;4924947;28;45344;-52
2022/08/03 09:59:24;;;;;;;;;6.00;4.00;;;;;30.44;40.63;101194.97;4925647;28;45453;-47
2022/08/03 10:01:49;;;;;;;;;6.00;4.00;;;;;30.47;40.62;101188.28;4925224;28;45523;-48
2022/08/03 10:04:15;;;;;;;;;2.75;2.00;;;;;30.52;40.69;101189.31;4925500;28;45469;-53
2022/08/03 10:07:01;;;;;;;;;4.75;4.00;;;;;30.53;40.77;101188.28;4924784;28;45441;-51
2022/08/03 10:09:26;;;;;;;;;3.00;3.00;;;;;30.61;40.43;101191.81;4925357;28;45453;-50
2022/08/03 10:11:52;;;;;;;;;3.00;2.50;;;;;30.67;40.28;101188.28;4926272;28;45455;-50
2022/08/03 10:14:19;;;;;;;;;4.50;3.50;;;;;30.73;39.98;101191.00;4925022;28;46097;-49
2022/08/03 10:16:45;;;;;;;;;5.75;3.00;;;;;30.78;39.96;101187.63;4924473;28;45165;-53
2022/08/03 10:19:13;;;;;;;;;4.00;4.00;;;;;30.81;39.87;101188.06;4925225;28;45322;-52
2022/08/03 10:21:41;;;;;;;;;3.75;3.00;;;;;30.83;39.54;101185.13;4925259;28;45408;-51
2022/08/03 10:24:09;;;;;;;;;3.00;2.25;;;;;30.85;39.78;101177.56;4925130;28;46220;-52
2022/08/03 10:26:39;;;;;;;;;3.00;3.00;;;;;30.89;39.64;101177.97;4922091;28;45324;-48
2022/08/03 10:29:11;;;;;;;;;4.25;2.00;;;;;30.92;39.75;101175.66;4925180;28;45454;-50
2022/08/03 10:31:44;;;;;;;;;3.75;2.50;;;;;30.96;39.54;101168.72;4922710;28;45319;-68
2022/08/03 10:34:18;;;;;;;;;4.00;2.75;;;;;31.00;39.12;101170.00;4924649;28;45800;-68
2022/08/03 10:36:46;;;;;;;;;3.25;2.75;;;;;31.12;38.78;101172.84;4924090;28;45390;-72
2022/08/03 10:39:13;;;;;;;;;4.25;2.75;;;;;31.22;38.70;101162.41;4927211;28;45384;-71
2022/08/03 10:41:45;;;;;;;;;3.00;3.00;;;;;31.34;38.04;101165.25;4924636;28;45737;-74
2022/08/03 10:44:16;;;;;;;;;1.00;1.00;;;;;31.49;38.29;101162.25;4939530;28;46340;-74
2022/08/03 10:46:44;;;;;;;;;12.00;5.00;;;;;31.63;38.05;101161.97;4924084;28;45467;-73
2022/08/03 10:49:17;;;;;;;;;19.50;13.25;;;;;31.72;37.87;101153.53;4924149;28;45171;-68
2022/08/03 10:51:47;;;;;;;;;5.00;2.00;;;;;31.81;37.54;101147.59;4924695;28;45238;-69
2022/08/03 10:57:41;;;;;;;;;4.00;2.50;;;;;32.04;36.85;101152.47;4923065;28;45470;-65
2022/08/03 11:00:08;;;;;;;;;3.50;2.50;;;;;32.12;36.58;101151.34;4923136;28;45436;-64
2022/08/03 11:03:08;;;;;;;;;7.00;5.75;;;;;32.18;36.52;101145.84;4920805;28;45196;-65
2022/08/03 11:05:40;;;;;;;;;3.00;3.00;;;;;32.26;36.54;101141.16;4921769;28;46385;-64
2022/08/03 11:08:33;;;;;;;;;5.50;3.50;;;;;32.28;36.45;101142.59;4922258;28;45660;-63
2022/08/03 11:11:17;;;;;;;;;3.50;2.50;;;;;32.27;35.90;101131.94;4922583;28;45414;-65
2022/08/03 11:14:19;;;;;;;;;4.50;3.00;;;;;32.36;35.77;101136.06;4922943;28;45319;-65
2022/08/03 11:17:04;;;;;;;;;2.00;2.00;;;;;32.44;35.85;101136.59;4892274;28;47725;-63
2022/08/03 11:19:44;;;;;;;;;4.00;3.00;;;;;32.49;35.26;101134.03;4923268;28;45335;-63
2022/08/03 11:22:10;;;;;;;;;5.25;3.50;;;;;32.54;35.46;101127.88;4924052;28;45254;-63
2022/08/03 11:24:35;;;;;;;;;15.00;12.75;;;;;32.60;35.17;101123.44;4924353;28;45383;-65
2022/08/03 11:27:13;;;;;;;;;4.00;3.25;;;;;32.67;35.50;101121.47;4923694;28;46165;-63
2022/08/03 11:30:06;;;;;;;;;5.00;3.75;;;;;32.76;35.11;101114.63;4922057;28;45465;-63
2022/08/03 11:32:55;;;;;;;;;2.00;2.00;;;;;32.79;34.92;101114.19;4923766;28;45401;-63
2022/08/03 11:35:35;;;;;;;;;4.50;3.00;;;;;32.82;34.57;101116.44;4922088;28;45451;-63
2022/08/03 11:38:09;;;;;;;;;41.00;31.75;;;;;32.89;34.95;101113.69;4922000;28;45449;-65
2022/08/03 11:40:34;;;;;;;;;2.25;2.25;;;;;32.97;34.23;101108.72;4925628;28;45384;-62
2022/08/03 11:43:01;;;;;;;;;12.25;11.00;;;;;33.08;34.44;101111.75;4923898;28;45451;-64
2022/08/03 11:45:26;;;;;;;;;2.75;2.00;;;;;33.13;34.08;101110.00;4923441;28;45653;-64
2022/08/03 11:47:54;;;;;;;;;2.50;2.50;;;;;33.20;34.27;101110.75;4922966;28;45937;-64
2022/08/03 11:50:21;;;;;;;;;2.25;2.25;;;;;33.27;33.98;101107.91;4923785;28;45466;-64
2022/08/03 11:52:47;;;;;;;;;4.50;2.00;;;;;33.29;33.48;101109.34;4922999;28;45634;-64
2022/08/03 11:55:15;;;;;;;;;2.00;1.25;;;;;33.35;33.40;101102.13;4923615;28;45512;-63
2022/08/03 11:57:41;;;;;;;;;3.75;2.00;;;;;33.39;33.77;101102.53;4923337;28;45440;-62
2022/08/03 12:00:26;;;;;;;;;1.00;1.00;;;;;33.45;33.71;101109.78;4922953;28;45286;-62
2022/08/03 12:03:06;;;;;;;;;1.25;1.25;;;;;33.52;33.31;101115.97;4923403;28;45420;-62
2022/08/03 12:05:33;;;;;;;;;3.00;2.50;;;;;33.58;32.93;101106.88;4923325;28;45517;-61
2022/08/03 12:07:59;;;;;;;;;2.00;1.25;;;;;33.62;32.80;101109.94;4922742;28;45441;-62
2022/08/03 12:10:25;;;;;;;;;3.00;2.00;;;;;33.58;32.24;101099.50;4922962;28;45431;-63
2022/08/03 12:13:01;;;;;;;;;2.75;2.75;;;;;33.60;32.29;101102.81;4923226;28;45419;-63
2022/08/03 12:15:30;;;;;;;;;2.75;1.75;;;;;33.65;31.88;101098.53;4922874;28;45516;-63
2022/08/03 12:17:56;;;;;;;;;1.75;1.75;;;;;33.72;32.43;101102.00;4921638;28;45426;-64
2022/08/03 12:20:25;;;;;;;;;4.25;2.25;;;;;33.75;32.29;101093.34;4922942;28;45518;-63
2022/08/03 12:22:51;;;;;;;;;1.75;1.75;;;;;33.77;32.07;101094.75;4923231;28;45449;-62
2022/08/03 12:25:25;;;;;;;;;3.00;1.50;;;;;33.81;31.49;101086.91;4923294;28;45394;-65
2022/08/03 12:27:52;;;;;;;;;3.25;2.00;;;;;33.83;32.11;101099.28;4922647;28;46181;-65
2022/08/03 12:30:19;;;;;;;;;13.50;13.00;;;;;33.84;31.70;101098.22;4922523;28;45443;-63
2022/08/03 12:32:45;;;;;;;;;6.00;6.00;;;;;33.88;32.10;101099.41;4923096;28;45436;-61
2022/08/03 12:35:22;;;;;;;;;4.00;3.00;;;;;33.95;31.29;101091.13;4922691;28;45450;-62
2022/08/03 12:37:48;;;;;;;;;4.00;3.75;;;;;34.01;31.71;101090.19;4923020;28;45373;-64
2022/08/03 12:40:14;;;;;;;;;7.00;3.00;;;;;34.09;31.56;101087.09;4924969;28;45374;-65
2022/08/03 12:42:40;;;;;;;;;3.50;2.50;;;;;34.14;31.62;101080.91;4923314;28;45652;-62
2022/08/03 12:45:33;;;;;;;;;4.00;3.00;;;;;34.11;30.98;101087.69;4922533;28;45565;-64
2022/08/03 12:48:00;;;;;;;;;2.25;2.25;;;;;34.13;31.79;101087.47;4919253;28;45496;-65
2022/08/03 12:50:28;;;;;;;;;9.25;7.00;;;;;34.16;31.03;101092.44;4922771;28;45335;-64
2022/08/03 12:52:54;;;;;;;;;2.50;2.00;;;;;34.15;31.21;101086.16;4922059;28;45397;-66
2022/08/03 12:55:21;;;;;;;;;2.75;2.75;;;;;34.21;31.50;101076.16;4922799;28;45623;-64
2022/08/03 12:57:47;;;;;;;;;6.75;2.00;;;;;34.25;31.09;101073.78;4922664;28;46180;-64
2022/08/03 13:00:14;;;;;;;;;2.00;2.00;;;;;34.25;31.17;101077.34;4922102;28;45318;-64
2022/08/03 13:02:40;;;;;;;;;1.50;1.50;;;;;34.27;30.45;101066.97;4922856;28;45288;-64
2022/08/03 13:05:13;;;;;;;;;3.00;3.00;;;;;34.34;30.62;101064.13;4923017;28;45257;-64
2022/08/03 13:07:41;;;;;;;;;5.50;3.75;;;;;34.36;30.67;101057.31;4920621;28;45373;-64
2022/08/03 13:10:08;;;;;;;;;2.00;2.00;;;;;34.41;30.82;101059.38;4921473;28;45579;-67
2022/08/03 13:12:48;;;;;;;;;1.75;1.75;;;;;34.46;30.75;101056.78;4922725;28;45536;-65
2022/08/03 13:15:13;;;;;;;;;5.25;3.25;;;;;34.50;30.08;101054.38;4922293;28;45444;-63
2022/08/03 13:17:39;;;;;;;;;1.00;1.00;;;;;34.57;30.15;101050.44;4922359;28;45449;-67
2022/08/03 13:20:05;;;;;;;;;2.00;2.00;;;;;34.58;30.52;101057.56;4922279;28;45347;-65
2022/08/03 13:22:32;;;;;;;;;2.25;1.50;;;;;34.54;30.20;101041.88;4922466;28;45337;-67
2022/08/03 13:24:59;;;;;;;;;2.00;2.00;;;;;34.63;29.43;101044.00;4922223;28;45347;-65
2022/08/03 13:27:26;;;;;;;;;4.25;2.50;;;;;34.68;29.85;101043.25;4922127;28;45470;-64
2022/08/03 13:29:52;;;;;;;;;3.50;2.00;;;;;34.76;29.50;101039.28;4921186;28;45254;-64
2022/08/03 13:32:18;;;;;;;;;2.50;1.75;;;;;34.81;29.14;101042.13;4922300;28;45240;-64
2022/08/03 13:34:44;;;;;;;;;1.75;1.00;;;;;34.83;29.63;101032.59;4922638;28;45416;-65
2022/08/03 13:37:10;;;;;;;;;0.75;0.75;;;;;34.88;29.22;101034.63;4921912;28;46145;-65
2022/08/03 13:39:37;;;;;;;;;3.00;1.75;;;;;34.89;29.53;101034.38;4924438;28;45404;-64
2022/08/03 13:42:02;;;;;;;;;4.25;2.00;;;;;34.93;29.29;101032.00;4922223;28;45533;-65
2022/08/03 13:44:28;;;;;;;;;5.50;2.00;;;;;35.00;29.14;101035.44;4922332;28;45485;-64
2022/08/03 13:46:53;;;;;;;;;1.00;1.00;;;;;35.05;29.37;101040.16;4921476;28;45731;-66
2022/08/03 13:49:19;;;;;;;;;3.50;2.75;;;;;35.06;29.11;101033.59;4922131;28;45331;-66
2022/08/03 13:51:44;;;;;;;;;3.00;1.00;;;;;35.10;29.10;101034.78;4922063;28;45345;-66
2022/08/03 13:54:10;;;;;;;;;4.50;2.75;;;;;35.16;29.15;101028.34;4921745;28;45400;-64
2022/08/03 13:56:35;;;;;;;;;2.00;2.00;;;;;35.19;29.01;101033.31;4922201;28;45845;-65
2022/08/03 13:59:01;;;;;;;;;3.50;3.25;;;;;35.20;29.20;101027.56;4936517;28;45466;-66
2022/08/03 14:01:26;;;;;;;;;8.00;2.50;;;;;35.18;29.15;101028.91;4921742;28;45397;-69
2022/08/03 14:03:53;;;;;;;;;3.75;3.50;;;;;35.19;29.14;101028.66;4922176;28;45818;-68
2022/08/03 14:06:19;;;;;;;;;66.75;50.50;;;;;35.20;29.09;101018.53;4920383;28;47138;-66
2022/08/03 14:08:46;;;;;;;;;32.75;27.25;;;;;35.20;28.90;101019.34;4921714;28;45331;-65
2022/08/03 14:11:12;;;;;;;;;2.50;1.00;;;;;35.24;28.88;101012.31;4921686;28;45469;-67
2022/08/03 14:13:38;;;;;;;;;8.25;7.00;;;;;35.30;28.50;101012.38;4921818;28;45580;-68
2022/08/03 14:16:04;;;;;;;;;3.00;1.50;;;;;35.34;28.31;101008.91;4921449;28;45633;-66
2022/08/03 14:18:29;;;;;;;;;5.25;3.00;;;;;35.39;28.64;101005.41;4921770;28;45295;-67
2022/08/03 14:20:57;;;;;;;;;2.75;2.75;;;;;35.40;28.27;101007.13;4921811;28;45381;-66
2022/08/03 14:23:22;;;;;;;;;1.75;1.75;;;;;35.42;28.44;101002.22;4922112;28;45323;-68
2022/08/03 14:25:48;;;;;;;;;2.00;2.00;;;;;35.46;28.36;101001.47;4921532;28;46431;-65
2022/08/03 14:28:14;;;;;;;;;1.25;1.00;;;;;35.44;28.16;100991.84;4921650;28;45327;-66
2022/08/03 14:30:39;;;;;;;;;3.50;2.00;;;;;35.40;28.22;100985.22;4917943;28;45450;-67
2022/08/03 14:33:04;;;;;;;;;3.00;1.00;;;;;35.39;28.08;100987.09;4921629;28;45516;-68
2022/08/03 14:35:30;;;;;;;;;1.00;1.00;;;;;35.39;28.00;100981.63;4921408;28;46243;-65
2022/08/03 14:37:55;;;;;;;;;10.25;8.50;;;;;35.45;27.99;100975.16;4919135;28;45386;-64
2022/08/03 14:40:21;;;;;;;;;1.50;1.00;;;;;35.48;27.97;100974.66;4922134;28;45445;-63
2022/08/03 14:42:46;;;;;;;;;4.75;0.50;;;;;35.50;27.81;100977.16;4922869;28;45661;-63
2022/08/03 14:45:12;;;;;;;;;1.50;1.00;;;;;35.50;27.76;100972.50;4924188;28;45988;-68
2022/08/03 14:47:39;;;;;;;;;2.25;2.25;;;;;35.49;27.88;100968.09;4924704;28;45518;-62
2022/08/03 14:50:06;;;;;;;;;5.00;1.00;;;;;35.51;27.72;100965.94;4924678;28;45349;-63
2022/08/03 14:52:32;;;;;;;;;5.00;1.75;;;;;35.53;27.60;100952.78;4923987;28;45584;-63
2022/08/03 14:54:58;;;;;;;;;0.75;0.75;;;;;35.59;27.22;100959.19;4923954;28;45996;-67
2022/08/03 14:57:24;;;;;;;;;2.25;1.75;;;;;35.61;27.37;100951.53;4924233;28;45422;-62
2022/08/03 14:59:50;;;;;;;;;1.50;1.50;;;;;35.66;27.60;100961.75;4924472;28;45746;-63
2022/08/03 15:02:16;;;;;;;;;2.00;2.00;;;;;35.72;27.46;100955.28;4921529;28;45537;-68
2022/08/03 15:04:41;;;;;;;;;0.25;0.25;;;;;35.77;27.44;100953.41;4924164;28;45674;-65
2022/08/03 15:07:07;;;;;;;;;1.25;1.25;;;;;35.71;27.34;100953.63;4924357;28;45322;-65
2022/08/03 15:09:33;;;;;;;;;1.75;1.75;;;;;35.69;27.18;100950.28;4924363;28;45426;-64
2022/08/03 15:11:59;;;;;;;;;2.50;2.50;;;;;35.70;27.17;100950.03;4924403;28;45575;-65
2022/08/03 15:14:24;;;;;;;;;1.25;1.25;;;;;35.64;27.25;100942.00;4924138;28;45500;-66
2022/08/03 15:16:51;;;;;;;;;1.50;0.50;;;;;35.63;27.32;100934.84;4923670;28;45402;-66
2022/08/03 15:19:17;;;;;;;;;0.75;0.75;;;;;35.61;27.32;100940.59;4921716;28;45345;-65
2022/08/03 15:21:42;;;;;;;;;1.75;1.00;;;;;35.64;27.66;100944.75;4924271;28;45326;-67
2022/08/03 15:24:09;;;;;;;;;2.75;2.75;;;;;35.69;27.54;100939.31;4924003;28;45310;-65
2022/08/03 15:26:35;;;;;;;;;2.00;1.00;;;;;35.72;27.44;100936.09;4923813;28;45322;-65
2022/08/03 15:29:01;;;;;;;;;1.00;1.00;;;;;35.73;27.53;100929.53;4923949;28;45429;-64
2022/08/03 15:31:26;;;;;;;;;2.25;1.25;;;;;35.75;27.22;100919.13;4923644;28;45311;-65
2022/08/03 15:33:52;;;;;;;;;3.00;2.00;;;;;35.77;27.15;100914.22;4922444;28;46913;-65
2022/08/03 15:36:18;;;;;;;;;1.75;1.50;;;;;35.78;27.49;100916.69;4924044;28;45381;-62
2022/08/03 15:38:44;;;;;;;;;1.75;1.00;;;;;35.83;27.35;100917.88;4924397;28;45509;-67
2022/08/03 15:41:11;;;;;;;;;1.00;1.00;;;;;35.85;27.50;100910.19;4923960;28;45343;-63
2022/08/03 15:43:36;;;;;;;;;2.25;1.00;;;;;35.84;27.33;100917.59;4923575;28;46573;-64
2022/08/03 15:46:02;;;;;;;;;2.00;2.00;;;;;35.85;27.38;100912.94;4923200;28;45437;-64
2022/08/03 15:48:27;;;;;;;;;1.75;1.75;;;;;35.87;27.24;100911.63;4923657;28;45386;-64
2022/08/03 15:50:53;;;;;;;;;1.00;1.00;;;;;35.87;26.75;100903.41;4924054;28;45571;-65
2022/08/03 15:53:19;;;;;;;;;4.00;2.00;;;;;35.90;26.92;100905.66;4922519;28;45442;-64
2022/08/03 15:55:45;;;;;;;;;2.75;2.25;;;;;35.94;27.11;100898.56;4923426;28;45434;-66
2022/08/03 15:58:11;;;;;;;;;2.75;1.25;;;;;35.95;27.07;100903.00;4923798;28;45420;-66
2022/08/03 16:00:39;;;;;;;;;1.75;1.50;;;;;35.94;26.95;100901.31;4923371;28;45349;-66
2022/08/03 16:03:05;;;;;;;;;2.00;0.75;;;;;35.94;26.94;100893.06;4923382;28;45418;-67
2022/08/03 16:05:31;;;;;;;;;3.50;1.25;;;;;35.94;27.06;100895.00;4923465;28;45263;-65
2022/08/03 16:07:56;;;;;;;;;3.00;3.00;;;;;35.90;26.82;100891.94;4923666;28;45338;-66
2022/08/03 16:10:22;;;;;;;;;1.25;1.25;;;;;35.87;27.08;100892.44;4923674;28;45338;-65
2022/08/03 16:12:48;;;;;;;;;2.25;2.25;;;;;35.87;26.81;100886.13;4923047;28;45378;-63
2022/08/03 16:15:13;;;;;;;;;2.00;2.00;;;;;35.85;26.45;100889.09;4922936;28;45280;-67
2022/08/03 16:17:39;;;;;;;;;1.00;1.00;;;;;35.83;26.69;100890.44;4923490;28;45325;-63
2022/08/03 16:20:07;;;;;;;;;3.00;1.75;;;;;35.80;26.87;100883.56;4923545;28;45442;-64
2022/08/03 16:22:33;;;;;;;;;2.25;2.00;;;;;35.84;26.69;100883.88;4922881;28;45374;-65
2022/08/03 16:25:00;;;;;;;;;2.75;1.25;;;;;35.88;26.78;100882.28;4921428;28;45440;-66
2022/08/03 16:27:26;;;;;;;;;1.00;1.00;;;;;35.90;26.75;100880.16;4923318;28;45303;-65
2022/08/03 16:29:51;;;;;;;;;2.00;1.50;;;;;35.79;26.35;100880.00;4923417;28;45195;-68
2022/08/03 16:32:17;;;;;;;;;1.00;1.00;;;;;35.64;26.63;100882.53;4922966;28;45368;-63
2022/08/03 16:34:43;;;;;;;;;2.75;2.75;;;;;35.58;26.87;100875.31;4922822;28;45466;-64
2022/08/03 16:37:09;;;;;;;;;1.25;1.00;;;;;35.61;26.59;100873.97;4923320;28;45474;-63
2022/08/03 16:39:34;;;;;;;;;2.00;2.00;;;;;35.64;26.83;100879.81;4923938;28;45479;-64
2022/08/03 16:42:00;;;;;;;;;1.50;1.00;;;;;35.66;26.89;100865.84;4922940;28;45461;-64
2022/08/03 16:44:27;;;;;;;;;1.75;1.75;;;;;35.72;26.87;100873.06;4922649;28;45586;-64
2022/08/03 16:46:53;;;;;;;;;2.75;1.00;;;;;35.70;26.71;100872.44;4922760;28;45309;-64
2022/08/03 16:49:19;;;;;;;;;2.75;1.00;;;;;35.58;26.74;100866.28;4923260;28;45365;-65
2022/08/03 16:51:44;;;;;;;;;2.25;2.00;;;;;35.53;26.68;100867.03;4923041;28;46149;-65
2022/08/03 16:54:10;;;;;;;;;2.00;2.00;;;;;35.57;26.78;100867.38;4922473;28;45267;-64
2022/08/03 16:56:36;;;;;;;;;3.25;0.75;;;;;35.61;26.96;100863.03;4922423;28;45430;-63
2022/08/03 16:59:02;;;;;;;;;1.25;1.00;;;;;35.62;26.80;100865.50;4923222;28;45259;-64
2022/08/03 17:01:28;;;;;;;;;1.00;1.00;;;;;35.55;26.59;100873.09;4922486;28;45339;-64
2022/08/03 17:04:00;;;;;;;;;0.00;0.00;;;;;35.41;26.60;100861.66;4922279;28;45340;-62
2022/08/03 17:06:26;;;;;;;;;1.00;1.00;;;;;35.27;26.96;100859.50;4922477;28;45387;-62
2022/08/03 17:08:52;;;;;;;;;1.00;1.00;;;;;35.13;26.52;100854.38;4922794;28;45243;-67
2022/08/03 17:11:18;;;;;;;;;1.00;1.00;;;;;35.07;27.12;100854.53;4922560;28;46239;-65
2022/08/03 17:13:45;;;;;;;;;3.00;2.00;;;;;34.97;27.06;100856.03;4921320;28;45623;-64
2022/08/03 17:16:12;;;;;;;;;1.00;1.00;;;;;34.88;26.70;100852.03;4922250;28;45429;-68
2022/08/03 17:18:51;;;;;;;;;2.75;0.25;;;;;34.78;26.91;100849.13;4921361;28;45605;-66
2022/08/03 17:21:24;;;;;;;;;1.00;1.00;;;;;34.68;27.11;100851.69;4922386;28;45236;-66
2022/08/03 17:24:20;;;;;;;;;1.25;1.00;;;;;34.60;27.08;100854.81;4922300;28;45445;-66
2022/08/03 17:26:48;;;;;;;;;1.00;1.00;;;;;34.51;27.35;100854.41;4922436;28;45420;-66
2022/08/03 17:29:17;;;;;;;;;2.50;1.00;;;;;34.46;27.31;100850.75;4922445;28;45520;-65
2022/08/03 17:31:43;;;;;;;;;6.00;2.00;;;;;34.40;27.84;100842.47;4922163;28;46124;-64
2022/08/03 17:34:08;;;;;;;;;1.25;1.25;;;;;34.36;27.90;100841.25;4922289;28;45397;-66
2022/08/03 17:36:34;;;;;;;;;1.00;1.00;;;;;34.30;27.69;100839.50;4922427;28;45286;-65
2022/08/03 17:39:03;;;;;;;;;4.00;2.00;;;;;34.28;27.28;100841.63;4923001;28;45544;-66
2022/08/03 17:41:32;;;;;;;;;1.00;1.00;;;;;34.26;27.51;100838.31;4922629;28;45337;-66
2022/08/03 17:43:58;;;;;;;;;4.00;4.00;;;;;34.29;27.69;100837.03;4922052;28;45325;-64
2022/08/03 17:46:24;;;;;;;;;3.50;2.25;;;;;34.30;27.68;100838.69;4922023;28;45401;-67
2022/08/03 17:48:50;;;;;;;;;4.75;4.00;;;;;34.32;28.26;100839.25;4921924;28;45325;-66
2022/08/03 17:51:26;;;;;;;;;1.75;1.75;;;;;34.34;28.10;100834.38;4922207;28;46011;-64
2022/08/03 17:54:10;;;;;;;;;1.50;1.50;;;;;34.34;28.30;100843.41;4920726;28;45410;-64
2022/08/03 17:56:44;;;;;;;;;1.00;1.00;;;;;34.31;27.61;100841.16;4921635;28;45494;-70
2022/08/03 17:59:33;;;;;;;;;2.25;1.75;;;;;34.26;28.02;100843.78;4922311;28;45319;-66
2022/08/03 18:05:01;;;;;;;;;3.50;2.50;;;;;34.16;27.90;100843.63;4920772;28;45904;-65
2022/08/03 18:07:33;;;;;;;;;6.00;4.75;;;;;34.11;28.44;100847.06;4935281;28;45284;-67
2022/08/03 18:10:01;;;;;;;;;3.00;2.50;;;;;34.10;28.13;100844.59;4919742;28;45335;-66
2022/08/03 18:12:28;;;;;;;;;2.25;1.50;;;;;34.06;27.83;100840.69;4921699;28;45339;-66
2022/08/03 18:14:59;;;;;;;;;2.50;2.50;;;;;34.04;28.61;100846.38;4921293;28;45245;-67
2022/08/03 18:17:30;;;;;;;;;2.75;2.75;;;;;34.01;28.07;100843.31;4923201;28;45327;-67
2022/08/03 18:19:56;;;;;;;;;1.75;1.00;;;;;33.98;27.88;100849.28;4925508;28;45514;-70
2022/08/03 18:22:25;;;;;;;;;3.75;3.00;;;;;33.92;28.54;100847.50;4925090;28;46132;-63
2022/08/03 18:24:51;;;;;;;;;3.00;3.00;;;;;33.85;28.49;100844.88;4924742;28;45314;-66
2022/08/03 18:27:19;;;;;;;;;4.00;3.00;;;;;33.79;28.71;100848.56;4925100;28;45403;-63
2022/08/03 18:29:46;;;;;;;;;6.00;3.00;;;;;33.74;28.83;100848.47;4925154;28;45288;-67